Descanso, CA (91916)

3:24 AM PDT on June 25, 2017 (GMT -0700)
Descanso/Townhall area | | Change Station
Active Advisory: Heat Advisory

Elev 3491 ft 32.85 °N, 116.62 °W | Updated 8 seconds ago

Partly Cloudy
Partly Cloudy
56.8 °F
Feels Like 56.8 °F
N
0.0
Wind Variable Wind from West
Gusts 0.0 mph

Today
High -- | Low -- °F
--% Chance of Precip.
Yesterday
High -- | Low -- °F
Precip. -- in
Pressure 29.82 in
Visibility -9999.0 miles
Clouds
Dew Point 50 °F
Humidity 79%
Rainfall 0.00 in
Snow Depth Not available.
5:39 AM 7:58 PM
Waxing Crescent, 3% visible
METAR KCZZ 250952Z AUTO 05005KT 16/10 A2992 RMK AO1 SLP096 T01560100
Pressure 29.82 in
Visibility -9999.0 miles
Clouds
Dew Point 50 °F
Humidity 79%
Rainfall 0.00 in
Snow Depth Not available.
5:39 AM 7:58 PM
Waxing Crescent, 3% visible
METAR KCZZ 250952Z AUTO 05005KT 16/10 A2992 RMK AO1 SLP096 T01560100

Get Your Daily Forecast Email!

Thanks for signing up!

Be on the lookout for a verification email in your inbox.

You'll start receiving severe weather alerts in your inbox..

×

10-Day Weather Forecast

Almanac

Astronomy

Jun. 25, 2017 Rise Set
Actual Time
Civil Twilight
Nautical Twilight
Astronomical Twilight
Moon
Length of Visible Light
Length of Day
Tomorrow will be .
, % of the Moon is Illuminated

Today's Extremes

State Highs State Lows

Community

WunderPhotos

Category 6

Welcome to Category 6. This is the collective home for Weather Underground's featured writeups by Dr. Jeff Masters (right), Bob Henson (left), Chris Burt, and other regular contributors.

Nearby

Air Quality

  Air Quality AQ Index Pollutant
Not available.

Snow Depth

Station Depth Elevation

Earthquake Activity

City Distance Mag. Time & Date
Minimum magnitude displayed is 2.5.

Coastal Water Temperatures

Place Temperature

Stations

Nearby Weather Stations

Station Location Temp. Windchill Dew Point Humidity Wind Precip. Elev Updated Type
                   

Watches & Warnings

Heat Advisory
Issued: 3:20 AM PDT Jun. 25, 2017 – National Weather Service

... Heat advisory remains in effect from 10 am this morning to
9 PM PDT this evening...

* high temperatures... 94 to 104.

* Location... elevations below 5000 ft.

* Impacts... those working or spending time outdoors, the
elderly, children, and those unaccustomed to excessive heat
will be most susceptible to dangerous heat illness.

Precautionary/preparedness actions...

Take extra precautions... if you work or spend time outside. When
possible... reschedule strenuous activities to early morning or
evening. Know the signs and symptoms of heat exhaustion and heat
stroke. Wear light weight and loose fitting clothing when
possible and drink plenty of water.



17